createdAt,value
2019-04-30T00:00:34.723Z,78.60
2019-04-30T00:03:39.232Z,78.50
2019-04-30T00:06:27.319Z,78.50
2019-04-30T00:09:15.146Z,78.50
2019-04-30T00:12:00.959Z,78.30
2019-04-30T00:14:45.358Z,78.30
2019-04-30T00:17:29.958Z,78.30
2019-04-30T00:20:15.121Z,78.30
2019-04-30T00:23:01.640Z,78.40
2019-04-30T00:25:46.410Z,78.80
2019-04-30T00:28:31.474Z,78.40
2019-04-30T00:31:17.377Z,78.40
2019-04-30T00:34:02.796Z,78.40
2019-04-30T00:36:47.435Z,78.20
2019-04-30T00:39:32.400Z,78.20
2019-04-30T00:42:24.009Z,77.70
2019-04-30T00:45:09.947Z,78.00
2019-04-30T00:47:53.432Z,78.70
2019-04-30T00:50:38.408Z,77.60
2019-04-30T00:53:23.202Z,77.60
2019-04-30T00:56:08.386Z,77.30
2019-04-30T00:58:57.444Z,77.40
2019-04-30T01:01:48.098Z,77.40
2019-04-30T01:04:34.983Z,77.30
2019-04-30T01:07:20.517Z,77.30
2019-04-30T01:10:07.323Z,77.20
2019-04-30T01:12:51.896Z,77.00
2019-04-30T01:15:36.752Z,77.10
2019-04-30T01:18:23.591Z,77.20
2019-04-30T01:21:11.238Z,77.20
2019-04-30T01:23:55.576Z,77.00
2019-04-30T01:26:40.789Z,77.00
2019-04-30T01:29:26.250Z,76.90
2019-04-30T01:32:17.614Z,76.80
2019-04-30T01:34:58.970Z,76.70
2019-04-30T01:37:43.685Z,76.80
2019-04-30T01:40:28.586Z,76.80
2019-04-30T01:43:13.190Z,76.80
2019-04-30T01:46:01.784Z,76.90
2019-04-30T01:48:50.545Z,77.10
2019-04-30T01:51:32.099Z,76.90
2019-04-30T01:54:21.298Z,76.90
2019-04-30T01:57:06.233Z,76.80
2019-04-30T02:00:01.693Z,76.80
2019-04-30T02:02:46.966Z,76.60
2019-04-30T02:05:31.630Z,77.10
2019-04-30T02:08:16.619Z,76.30
2019-04-30T02:11:01.442Z,76.30
2019-04-30T02:13:49.035Z,76.30
2019-04-30T02:16:33.525Z,76.30
2019-04-30T02:19:18.817Z,76.40
2019-04-30T02:22:03.827Z,76.30
2019-04-30T02:24:48.746Z,76.40
2019-04-30T02:27:33.566Z,76.40
2019-04-30T02:30:20.902Z,76.70
2019-04-30T02:33:05.258Z,76.90
2019-04-30T02:35:51.839Z,76.70
2019-04-30T02:38:41.610Z,76.80
2019-04-30T02:41:29.317Z,76.60
2019-04-30T02:44:15.113Z,76.40
2019-04-30T02:47:00.467Z,76.50
2019-04-30T02:49:46.837Z,76.60
2019-04-30T02:52:35.761Z,76.60
2019-04-30T02:55:30.253Z,76.60
2019-04-30T02:58:14.957Z,77.40
2019-04-30T03:01:00.330Z,76.50
2019-04-30T03:03:45.468Z,76.50
2019-04-30T03:06:30.588Z,76.40
2019-04-30T03:09:15.559Z,76.50
2019-04-30T03:12:00.506Z,76.40
2019-04-30T03:14:45.061Z,76.50
2019-04-30T03:17:47.058Z,76.50
2019-04-30T03:20:46.316Z,76.70
2019-04-30T03:23:31.253Z,76.30
2019-04-30T03:26:16.112Z,76.20
2019-04-30T03:29:01.057Z,76.30
2019-04-30T03:31:46.022Z,76.30
2019-04-30T03:34:32.777Z,76.40
2019-04-30T03:37:19.826Z,76.40
2019-04-30T03:40:09.793Z,76.40
2019-04-30T03:42:53.950Z,76.30
2019-04-30T03:45:40.199Z,76.50
2019-04-30T03:48:25.297Z,76.60
2019-04-30T03:51:10.777Z,76.60
2019-04-30T03:53:55.908Z,76.60
2019-04-30T03:56:41.671Z,77.50
2019-04-30T03:59:26.525Z,76.80
2019-04-30T04:02:13.265Z,76.70
2019-04-30T04:05:02.465Z,76.50
2019-04-30T04:08:01.233Z,76.50
2019-04-30T04:10:52.599Z,76.60
2019-04-30T04:13:34.636Z,76.50
2019-04-30T04:16:19.636Z,76.40
2019-04-30T04:19:04.748Z,76.60
2019-04-30T04:21:50.905Z,76.50
2019-04-30T04:24:35.914Z,76.60
2019-04-30T04:27:20.840Z,76.70
2019-04-30T04:30:06.134Z,76.60
2019-04-30T04:32:51.001Z,76.50
2019-04-30T04:35:35.774Z,76.50
2019-04-30T04:38:20.648Z,76.50
2019-04-30T04:41:05.528Z,76.60
2019-04-30T04:43:50.670Z,76.50
2019-04-30T04:46:35.845Z,76.60
2019-04-30T04:49:20.946Z,76.60
2019-04-30T04:52:05.673Z,76.40
2019-04-30T04:54:51.024Z,76.30
2019-04-30T04:57:36.427Z,76.80
2019-04-30T05:00:21.535Z,76.60
2019-04-30T05:03:09.432Z,76.60
2019-04-30T05:05:54.648Z,76.50
2019-04-30T05:08:39.682Z,76.50
2019-04-30T05:11:24.796Z,76.30
2019-04-30T05:14:10.981Z,76.10
2019-04-30T05:16:55.904Z,75.90
2019-04-30T05:19:41.289Z,75.90
2019-04-30T05:22:25.944Z,75.80
2019-04-30T05:25:10.960Z,75.90
2019-04-30T05:27:56.042Z,76.10
2019-04-30T05:30:40.603Z,76.20
2019-04-30T05:33:25.425Z,76.40
2019-04-30T05:36:10.076Z,76.20
2019-04-30T05:38:55.101Z,76.20
2019-04-30T05:41:41.103Z,76.20
2019-04-30T05:44:25.988Z,75.90
2019-04-30T05:47:10.788Z,75.80
2019-04-30T05:49:55.635Z,75.80
2019-04-30T05:52:40.525Z,75.80
2019-04-30T05:55:25.610Z,75.80
2019-04-30T05:58:10.341Z,75.50
2019-04-30T06:00:55.195Z,75.40
2019-04-30T06:03:40.218Z,75.50
2019-04-30T06:06:25.053Z,75.20
2019-04-30T06:09:30.746Z,75.20
2019-04-30T06:12:08.855Z,75.10
2019-04-30T06:15:04.086Z,75.10
2019-04-30T06:18:00.101Z,75.30
2019-04-30T06:20:38.615Z,75.30
2019-04-30T06:23:23.532Z,75.90
2019-04-30T06:26:10.682Z,74.90
2019-04-30T06:28:55.337Z,74.70
2019-04-30T06:31:43.055Z,74.70
2019-04-30T06:34:29.428Z,74.80
2019-04-30T06:37:14.758Z,74.80
2019-04-30T06:39:59.763Z,75.00
2019-04-30T06:42:45.230Z,74.80
2019-04-30T06:45:30.622Z,74.70
2019-04-30T06:48:16.511Z,74.20
2019-04-30T06:51:01.306Z,74.40
2019-04-30T06:53:48.770Z,73.10
2019-04-30T06:56:33.403Z,73.20
2019-04-30T06:59:17.998Z,73.50
2019-04-30T07:02:03.012Z,74.10
2019-04-30T07:04:49.153Z,74.60
2019-04-30T07:07:38.733Z,74.40
2019-04-30T07:10:23.978Z,74.20
2019-04-30T07:13:10.733Z,74.00
2019-04-30T07:15:55.662Z,74.00
2019-04-30T07:18:40.665Z,73.50
2019-04-30T07:21:25.434Z,73.40
2019-04-30T07:24:10.346Z,73.20
2019-04-30T07:27:00.461Z,73.00
2019-04-30T07:29:42.079Z,72.80
2019-04-30T07:32:28.781Z,72.70
2019-04-30T07:35:13.914Z,72.60
2019-04-30T07:38:03.366Z,72.30
2019-04-30T07:40:45.626Z,72.30
2019-04-30T07:43:30.620Z,72.30
2019-04-30T07:46:15.645Z,71.70
2019-04-30T07:49:00.442Z,71.20
2019-04-30T07:51:46.153Z,70.90
2019-04-30T07:54:31.250Z,71.00
2019-04-30T07:57:16.053Z,71.30
2019-04-30T08:00:00.787Z,71.40
2019-04-30T08:02:50.560Z,71.80
2019-04-30T08:05:43.701Z,71.60
2019-04-30T08:08:30.323Z,71.70
2019-04-30T08:11:23.847Z,71.30
2019-04-30T08:14:02.558Z,71.60
2019-04-30T08:16:48.507Z,71.00
2019-04-30T08:19:35.051Z,70.50
2019-04-30T08:22:20.004Z,70.30
2019-04-30T08:25:05.290Z,70.10
2019-04-30T08:27:49.880Z,69.80
2019-04-30T08:30:34.808Z,69.70
2019-04-30T08:33:19.611Z,70.30
2019-04-30T08:36:04.688Z,70.40
2019-04-30T08:38:49.685Z,70.30
2019-04-30T08:41:34.651Z,70.20
2019-04-30T08:44:21.233Z,69.70
2019-04-30T08:47:06.273Z,69.70
2019-04-30T08:49:51.160Z,70.20
2019-04-30T08:52:35.924Z,69.40
2019-04-30T08:55:22.491Z,68.90
2019-04-30T08:58:12.478Z,69.30
2019-04-30T09:00:54.613Z,69.20
2019-04-30T09:03:39.513Z,69.30
2019-04-30T09:06:25.026Z,68.60
2019-04-30T09:09:11.657Z,69.10
2019-04-30T09:11:56.499Z,69.30
2019-04-30T09:14:41.269Z,69.10
2019-04-30T09:17:26.282Z,69.40
2019-04-30T09:20:10.967Z,69.50
2019-04-30T09:22:55.870Z,69.20
2019-04-30T09:25:40.637Z,69.00
2019-04-30T09:28:25.499Z,68.50
2019-04-30T09:31:10.296Z,68.60
2019-04-30T09:33:57.858Z,69.70
2019-04-30T09:36:42.135Z,69.80
2019-04-30T09:39:26.867Z,69.50
2019-04-30T09:42:11.778Z,69.90
2019-04-30T09:44:59.092Z,69.50
2019-04-30T09:47:43.509Z,69.30
2019-04-30T09:50:29.165Z,69.70
2019-04-30T09:53:14.248Z,69.60
2019-04-30T09:55:59.658Z,69.30
2019-04-30T09:58:44.613Z,69.20
2019-04-30T10:01:31.862Z,69.40
2019-04-30T10:04:16.520Z,69.80
2019-04-30T10:07:02.094Z,69.50
2019-04-30T10:09:50.654Z,69.60
2019-04-30T10:12:33.799Z,69.60
2019-04-30T10:15:26.576Z,69.20
2019-04-30T10:18:11.469Z,69.80
2019-04-30T10:20:56.437Z,70.00
2019-04-30T10:23:41.283Z,69.50
2019-04-30T10:26:26.408Z,69.80
2019-04-30T10:29:11.101Z,70.00
2019-04-30T10:31:55.991Z,69.50
2019-04-30T10:34:40.672Z,69.10
2019-04-30T10:37:25.773Z,70.00
2019-04-30T10:40:10.745Z,70.20
2019-04-30T10:42:55.438Z,69.20
2019-04-30T10:45:40.319Z,68.70
2019-04-30T10:48:25.386Z,68.60
2019-04-30T10:51:10.347Z,68.50
2019-04-30T10:53:55.243Z,68.50
2019-04-30T10:56:39.949Z,68.90
2019-04-30T10:59:24.893Z,68.00
2019-04-30T11:02:09.694Z,66.60
2019-04-30T11:04:54.501Z,65.80
2019-04-30T11:07:39.537Z,66.10
2019-04-30T11:10:25.366Z,67.20
2019-04-30T11:13:10.244Z,66.20
2019-04-30T11:15:55.313Z,65.10
2019-04-30T11:18:40.091Z,63.80
2019-04-30T11:21:25.019Z,63.90
2019-04-30T11:24:10.416Z,62.80
2019-04-30T11:26:55.723Z,65.70
2019-04-30T11:29:41.346Z,66.60
2019-04-30T11:32:26.563Z,59.80
2019-04-30T11:35:12.229Z,54.40
2019-04-30T11:37:57.400Z,50.80
2019-04-30T11:40:43.021Z,50.40
2019-04-30T11:43:29.410Z,48.30
2019-04-30T11:46:23.778Z,47.00
2019-04-30T11:49:09.686Z,43.90
2019-04-30T11:51:54.712Z,42.50
2019-04-30T11:54:49.140Z,40.30
2019-04-30T11:57:26.349Z,38.90
2019-04-30T12:00:15.710Z,37.50
2019-04-30T12:03:00.576Z,36.60
2019-04-30T12:05:45.175Z,35.60
2019-04-30T12:08:32.206Z,33.50
2019-04-30T12:11:27.970Z,35.10
2019-04-30T12:14:12.840Z,34.60
2019-04-30T12:16:57.863Z,32.50
2019-04-30T12:19:42.945Z,33.90
2019-04-30T12:22:29.483Z,33.40
2019-04-30T12:25:14.719Z,32.50
2019-04-30T12:27:59.632Z,31.70
2019-04-30T12:30:44.643Z,31.50
2019-04-30T12:33:29.638Z,31.40
2019-04-30T12:36:14.492Z,30.40
2019-04-30T12:38:59.519Z,31.90
2019-04-30T12:41:44.200Z,32.10
2019-04-30T12:44:29.055Z,31.30
2019-04-30T12:47:13.855Z,32.00
2019-04-30T12:50:15.668Z,32.30
2019-04-30T12:53:11.329Z,32.70
2019-04-30T12:56:10.246Z,31.70
2019-04-30T12:58:54.963Z,32.50
2019-04-30T13:01:21.276Z,32.10
2019-04-30T13:03:56.645Z,30.80
2019-04-30T13:06:16.226Z,30.20
2019-04-30T13:08:43.367Z,30.80
2019-04-30T13:11:12.726Z,31.20
2019-04-30T13:13:40.552Z,32.20
2019-04-30T13:16:08.521Z,31.20
2019-04-30T13:18:53.681Z,30.00
2019-04-30T13:21:39.575Z,30.90
2019-04-30T13:24:25.255Z,30.60
2019-04-30T13:27:10.141Z,29.90
2019-04-30T13:30:02.634Z,30.40
2019-04-30T13:32:51.893Z,30.10
2019-04-30T13:35:38.880Z,30.70
2019-04-30T13:38:31.477Z,30.30
2019-04-30T13:41:34.534Z,30.00
2019-04-30T13:44:21.498Z,29.80
2019-04-30T13:47:06.836Z,28.50
2019-04-30T13:49:51.845Z,28.30
2019-04-30T13:52:36.676Z,29.10
2019-04-30T13:55:21.460Z,29.10
2019-04-30T13:58:06.464Z,27.90
2019-04-30T14:00:51.305Z,27.90
2019-04-30T14:03:39.045Z,27.60
2019-04-30T14:06:26.004Z,27.20
2019-04-30T14:09:24.959Z,28.20
2019-04-30T14:12:09.723Z,28.00
2019-04-30T14:14:54.519Z,27.60
2019-04-30T14:17:40.152Z,26.90
2019-04-30T14:20:25.802Z,26.90
2019-04-30T14:23:10.692Z,26.30
2019-04-30T14:25:37.092Z,26.90
2019-04-30T14:28:03.920Z,27.40
2019-04-30T14:30:30.091Z,27.70
2019-04-30T14:32:56.272Z,29.10
2019-04-30T14:35:22.434Z,29.90
2019-04-30T14:37:49.622Z,30.60
2019-04-30T14:40:17.124Z,31.30
2019-04-30T14:43:11.583Z,31.90
2019-04-30T14:46:04.996Z,32.50
2019-04-30T14:48:55.639Z,34.00
2019-04-30T14:51:41.209Z,34.60
2019-04-30T14:54:28.063Z,35.30
2019-04-30T14:57:26.696Z,35.70
2019-04-30T15:00:32.012Z,36.00
2019-04-30T15:03:19.432Z,36.30
2019-04-30T15:06:04.623Z,37.00
2019-04-30T15:08:49.615Z,37.70
2019-04-30T15:11:35.996Z,38.10
2019-04-30T15:14:20.579Z,38.70
2019-04-30T15:17:05.397Z,39.40
2019-04-30T15:19:54.267Z,39.80
2019-04-30T15:22:38.998Z,39.30
2019-04-30T15:25:24.159Z,39.50
2019-04-30T15:28:09.832Z,39.40
2019-04-30T15:30:54.840Z,39.50
2019-04-30T15:33:41.746Z,39.90
2019-04-30T15:36:26.596Z,39.80
2019-04-30T15:39:16.155Z,40.10
2019-04-30T15:42:01.101Z,40.50
2019-04-30T15:44:46.643Z,40.50
2019-04-30T15:47:31.432Z,40.80
2019-04-30T15:50:16.364Z,41.00
2019-04-30T15:53:01.396Z,41.10
2019-04-30T15:55:46.423Z,41.70
2019-04-30T15:58:32.815Z,42.00
2019-04-30T16:01:19.244Z,42.40
2019-04-30T16:04:04.310Z,42.40
2019-04-30T16:06:49.212Z,42.80
2019-04-30T16:09:44.608Z,43.10
2019-04-30T16:12:31.429Z,43.60
2019-04-30T16:15:18.477Z,44.00
2019-04-30T16:18:04.497Z,44.30
2019-04-30T16:20:49.860Z,44.80
2019-04-30T16:23:34.557Z,45.50
2019-04-30T16:26:19.251Z,45.90
2019-04-30T16:29:04.296Z,46.10
2019-04-30T16:31:49.518Z,46.20
2019-04-30T16:34:34.215Z,46.50
2019-04-30T16:37:20.204Z,46.90
2019-04-30T16:40:05.981Z,47.10
2019-04-30T16:42:50.973Z,47.00
2019-04-30T16:45:35.860Z,47.40
2019-04-30T16:48:20.623Z,47.50
2019-04-30T16:51:05.690Z,47.60
2019-04-30T16:53:50.325Z,47.60
2019-04-30T16:56:35.280Z,47.60
2019-04-30T16:59:24.840Z,47.50
2019-04-30T17:02:09.892Z,47.70
2019-04-30T17:04:59.616Z,47.80
2019-04-30T17:08:04.759Z,48.20
2019-04-30T17:10:51.636Z,47.50
2019-04-30T17:13:38.967Z,47.80
2019-04-30T17:16:24.197Z,47.60
2019-04-30T17:19:09.423Z,47.80
2019-04-30T17:21:54.299Z,47.70
2019-04-30T17:24:39.473Z,48.10
2019-04-30T17:27:24.510Z,48.20
2019-04-30T17:30:11.037Z,48.50
2019-04-30T17:32:56.161Z,48.70
2019-04-30T17:35:41.016Z,48.80
2019-04-30T17:38:26.167Z,48.90
2019-04-30T17:41:10.988Z,49.20
2019-04-30T17:43:55.842Z,49.50
2019-04-30T17:46:40.738Z,49.90
2019-04-30T17:49:25.629Z,50.20
2019-04-30T17:52:10.412Z,50.40
2019-04-30T17:54:55.236Z,50.40
2019-04-30T17:57:40.438Z,50.90
2019-04-30T18:00:29.175Z,51.10
2019-04-30T18:03:13.901Z,51.20
2019-04-30T18:05:59.272Z,51.50
2019-04-30T18:08:44.110Z,51.90
2019-04-30T18:11:29.624Z,52.20
2019-04-30T18:14:14.907Z,52.30
2019-04-30T18:16:59.651Z,52.50
2019-04-30T18:19:49.714Z,52.70
2019-04-30T18:22:45.789Z,52.40
2019-04-30T18:25:35.157Z,53.10
2019-04-30T18:28:19.897Z,53.10
2019-04-30T18:31:04.740Z,53.50
2019-04-30T18:33:51.426Z,53.60
2019-04-30T18:36:36.348Z,53.90
2019-04-30T18:39:21.208Z,54.10
2019-04-30T18:42:06.202Z,54.40
2019-04-30T18:44:51.230Z,54.50
2019-04-30T18:47:35.991Z,54.70
2019-04-30T18:50:20.920Z,55.20
2019-04-30T18:53:08.699Z,55.30
2019-04-30T18:55:53.729Z,55.50
2019-04-30T18:58:42.253Z,55.60
2019-04-30T19:01:25.573Z,55.70
2019-04-30T19:04:11.850Z,55.90
2019-04-30T19:06:58.872Z,56.30
2019-04-30T19:09:45.655Z,56.50
2019-04-30T19:12:41.208Z,57.00
2019-04-30T19:16:14.716Z,57.10
2019-04-30T19:18:33.733Z,57.30
2019-04-30T19:21:19.451Z,57.60
2019-04-30T19:24:04.268Z,57.60
2019-04-30T19:26:48.989Z,57.70
2019-04-30T19:29:33.990Z,57.90
2019-04-30T19:32:18.844Z,58.50
2019-04-30T19:35:06.013Z,58.50
2019-04-30T19:37:50.500Z,58.60
2019-04-30T19:40:35.100Z,58.70
2019-04-30T19:43:19.713Z,58.90
2019-04-30T19:46:04.326Z,58.80
2019-04-30T19:48:50.720Z,59.10
2019-04-30T19:51:35.585Z,59.30
2019-04-30T19:54:20.568Z,59.40
2019-04-30T19:57:05.405Z,59.50
2019-04-30T19:59:50.316Z,59.70
2019-04-30T20:02:35.049Z,59.90
2019-04-30T20:05:19.799Z,60.10
2019-04-30T20:08:04.640Z,61.10
2019-04-30T20:10:49.682Z,60.70
2019-04-30T20:13:37.235Z,61.00
2019-04-30T20:16:21.910Z,60.90
2019-04-30T20:19:09.041Z,61.30
2019-04-30T20:21:54.130Z,61.60
2019-04-30T20:24:39.451Z,61.60
2019-04-30T20:27:24.100Z,62.50
2019-04-30T20:30:09.597Z,62.00
2019-04-30T20:32:55.108Z,62.10
2019-04-30T20:35:41.139Z,62.10
2019-04-30T20:38:34.265Z,62.50
2019-04-30T20:41:18.999Z,62.50
2019-04-30T20:44:04.003Z,62.70
2019-04-30T20:46:49.158Z,63.20
2019-04-30T20:49:34.646Z,63.20
2019-04-30T20:52:20.699Z,63.70
2019-04-30T20:55:06.317Z,63.90
2019-04-30T20:57:51.264Z,64.20
2019-04-30T21:00:36.190Z,64.20
2019-04-30T21:03:21.218Z,64.30
2019-04-30T21:06:06.062Z,64.50
2019-04-30T21:08:51.319Z,64.40
2019-04-30T21:11:36.214Z,64.60
2019-04-30T21:14:21.046Z,64.90
2019-04-30T21:17:05.832Z,65.00
2019-04-30T21:19:50.566Z,65.20
2019-04-30T21:22:35.612Z,65.30
2019-04-30T21:25:20.600Z,65.30
2019-04-30T21:28:05.595Z,65.50
2019-04-30T21:30:50.526Z,65.70
2019-04-30T21:33:38.473Z,65.80
2019-04-30T21:36:25.164Z,65.80
2019-04-30T21:39:09.561Z,65.80
2019-04-30T21:41:54.446Z,65.90
2019-04-30T21:44:38.869Z,65.80
2019-04-30T21:47:23.704Z,65.90
2019-04-30T21:50:10.220Z,66.00
2019-04-30T21:52:55.226Z,66.30
2019-04-30T21:55:40.108Z,66.30
2019-04-30T21:58:24.492Z,66.40
2019-04-30T22:01:13.131Z,66.50
2019-04-30T22:03:57.723Z,66.40
2019-04-30T22:06:42.291Z,66.30
2019-04-30T22:09:27.091Z,66.40
2019-04-30T22:12:11.484Z,66.50
2019-04-30T22:14:55.931Z,66.60
2019-04-30T22:17:40.360Z,66.80
2019-04-30T22:20:24.991Z,66.90
2019-04-30T22:23:09.482Z,66.90
2019-04-30T22:25:54.603Z,67.00
2019-04-30T22:28:41.291Z,67.00
2019-04-30T22:31:26.100Z,67.10
2019-04-30T22:34:10.696Z,67.10
2019-04-30T22:36:55.398Z,67.20
2019-04-30T22:39:56.772Z,67.10
2019-04-30T22:42:41.038Z,67.20
2019-04-30T22:45:27.702Z,67.10
2019-04-30T22:48:12.193Z,67.40
2019-04-30T22:50:56.842Z,67.60
2019-04-30T22:53:41.414Z,67.60
2019-04-30T22:56:25.984Z,67.80
2019-04-30T22:59:10.454Z,67.80
2019-04-30T23:01:57.092Z,68.00
2019-04-30T23:04:43.726Z,67.90
2019-04-30T23:07:28.682Z,67.90
2019-04-30T23:10:15.362Z,67.90
2019-04-30T23:13:00.507Z,68.40
2019-04-30T23:15:46.357Z,68.00
2019-04-30T23:18:32.273Z,68.00
2019-04-30T23:21:17.268Z,68.10
2019-04-30T23:24:02.723Z,68.00
2019-04-30T23:26:47.526Z,68.70
2019-04-30T23:29:32.413Z,68.10
2019-04-30T23:32:17.450Z,68.20
2019-04-30T23:35:03.535Z,68.30
2019-04-30T23:37:47.972Z,68.30
2019-04-30T23:40:48.795Z,68.40
2019-04-30T23:43:33.477Z,68.30
2019-04-30T23:46:18.119Z,68.40
2019-04-30T23:49:02.914Z,68.30
2019-04-30T23:51:47.250Z,68.40
2019-04-30T23:54:31.745Z,68.60
2019-04-30T23:57:16.319Z,68.50
